Terminal Aerodrome Forecast
Issued by NWS

Home | Current Version | Previous Version | Graphics & Text | Print | Product List | Glossary On
Versions: 1 2 3 4 5 6 7 8 9 10 11 12 13 14 15 16 17 18 19 20
722
FTUS43 KGRB 271127
TAFAUW
TAF
KAUW 271127Z 2712/2812 07006KT P6SM OVC250
     FM271500 08010G18KT P6SM OVC200
     FM271900 08014G22KT P6SM BKN100 OVC150
     FM280200 07009KT P6SM SCT040 OVC090
     FM280900 06009KT P6SM SCT025 OVC040
      TEMPO 2809/2812 5SM -RASN BKN025=

USA.gov is the U.S. government's official web portal to all federal, state and local government web resources and services.